東京理科大学Ⅰ部体育局航空部

このエントリーをはてなブックマークに追加

ようこそ、理科大航空部HPへ! ここでは、航空部に関する情報や、活動などをお知らせしています。


METAR・TAF

TOKYO INTERNATIONAL
Metar
RJTT 222200Z 34011KT 4500 SHRA BR FEW008 SCT015 BKN050 09/08 Q1006 TEMPO FEW008 BKN012 RMK 1ST008 4CU015 7SC050 A2972

22:00 UTC

Wind: 340° 11kt

Visibility: 4500 m

Sky: FEW 800 ft

Temp: 9 deg C / 48.2 deg F

Dewpoint: 8 deg C / 46.4 deg F

Pressure: 1006 hPa

TAF
TAF RJTT 221705Z 2218/2400 34012KT 6000 -SHRA FEW008 BKN012 TEMPO 2218/2300 3000 SHRA BR FEW003 BKN005 TEMPO 2300/2303 4000 -SHRA BR FEW005 BKN008 BECMG 2318/2321 22008KT
NARITA INTERNATIONAL
Metar
RJAA 222200Z 34008KT 2800 SHRA BR FEW001 BKN002 BKN030 07/07 Q1006 NOSIG RMK 1ST001 5ST002 7CU030 A2971

22:00 UTC

Wind: 340° 8kt

Visibility: 2800 m

Sky: FEW 100 ft

Temp: 7 deg C / 44.6 deg F

Dewpoint: 7 deg C / 44.6 deg F

Pressure: 1006 hPa

TAF
TAF RJAA 221707Z 2218/2400 34010KT 4000 -SHRA BR FEW005 BKN008 TEMPO 2218/2300 2000 SHRA BR FEW002 BKN003 BECMG 2302/2304 9999 NSW FEW012 BKN030 BECMG 2318/2321 20005KT